sensor_id;sensor_type;location;lat;lon;timestamp;temperature;humidity
35970;DHT22;22448;51.298;6.430;2022-12-18T00:01:26;-5.90;99.90
35970;DHT22;22448;51.298;6.430;2022-12-18T00:03:55;-5.90;99.90
35970;DHT22;22448;51.298;6.430;2022-12-18T00:06:24;-5.80;99.90
35970;DHT22;22448;51.298;6.430;2022-12-18T00:08:52;-5.90;99.90
35970;DHT22;22448;51.298;6.430;2022-12-18T00:11:21;-5.90;99.90
35970;DHT22;22448;51.298;6.430;2022-12-18T00:13:49;-5.80;99.90
35970;DHT22;22448;51.298;6.430;2022-12-18T00:16:19;-5.80;99.90
35970;DHT22;22448;51.298;6.430;2022-12-18T00:18:48;-5.80;99.90
35970;DHT22;22448;51.298;6.430;2022-12-18T00:21:17;-5.80;99.90
35970;DHT22;22448;51.298;6.430;2022-12-18T00:28:33;-5.60;99.90
35970;DHT22;22448;51.298;6.430;2022-12-18T08:02:31;-4.70;99.90
35970;DHT22;22448;51.298;6.430;2022-12-18T08:04:58;-4.60;99.90
35970;DHT22;22448;51.298;6.430;2022-12-18T08:07:25;-4.60;99.90
35970;DHT22;22448;51.298;6.430;2022-12-18T08:09:52;-4.50;99.90
35970;DHT22;22448;51.298;6.430;2022-12-18T08:12:19;-4.50;99.90
35970;DHT22;22448;51.298;6.430;2022-12-18T08:14:46;-4.50;99.90
35970;DHT22;22448;51.298;6.430;2022-12-18T08:17:13;-4.40;99.90
35970;DHT22;22448;51.298;6.430;2022-12-18T08:19:40;-4.30;99.90
35970;DHT22;22448;51.298;6.430;2022-12-18T08:22:07;-4.20;99.90
35970;DHT22;22448;51.298;6.430;2022-12-18T08:24:34;-4.20;99.90
35970;DHT22;22448;51.298;6.430;2022-12-18T08:27:01;-4.10;99.90
35970;DHT22;22448;51.298;6.430;2022-12-18T08:29:48;-4.00;99.90
35970;DHT22;22448;51.298;6.430;2022-12-18T08:32:15;-4.00;99.90
35970;DHT22;22448;51.298;6.430;2022-12-18T08:34:41;-3.90;99.90
35970;DHT22;22448;51.298;6.430;2022-12-18T08:37:08;-3.80;99.90
35970;DHT22;22448;51.298;6.430;2022-12-18T08:39:35;-3.70;99.90
35970;DHT22;22448;51.298;6.430;2022-12-18T08:42:02;-3.60;99.90
35970;DHT22;22448;51.298;6.430;2022-12-18T08:44:48;-3.60;99.90
35970;DHT22;22448;51.298;6.430;2022-12-18T08:47:15;-3.50;99.90
35970;DHT22;22448;51.298;6.430;2022-12-18T08:49:41;-3.40;99.90
35970;DHT22;22448;51.298;6.430;2022-12-18T08:52:09;-3.30;99.90
35970;DHT22;22448;51.298;6.430;2022-12-18T08:54:35;-3.30;99.90
35970;DHT22;22448;51.298;6.430;2022-12-18T08:57:02;-3.20;99.90
35970;DHT22;22448;51.298;6.430;2022-12-18T08:59:30;-3.10;99.90
35970;DHT22;22448;51.298;6.430;2022-12-18T09:01:57;-3.10;99.90
35970;DHT22;22448;51.298;6.430;2022-12-18T09:04:24;-3.00;99.90
35970;DHT22;22448;51.298;6.430;2022-12-18T09:06:51;-3.00;99.90
35970;DHT22;22448;51.298;6.430;2022-12-18T09:09:18;-3.00;99.90
35970;DHT22;22448;51.298;6.430;2022-12-18T09:11:45;-3.00;99.90
35970;DHT22;22448;51.298;6.430;2022-12-18T09:14:12;-3.00;99.90
35970;DHT22;22448;51.298;6.430;2022-12-18T09:16:39;-3.00;99.90
35970;DHT22;22448;51.298;6.430;2022-12-18T09:19:06;-3.00;99.90
35970;DHT22;22448;51.298;6.430;2022-12-18T09:21:34;-2.80;99.90
35970;DHT22;22448;51.298;6.430;2022-12-18T09:24:03;-2.80;99.90
35970;DHT22;22448;51.298;6.430;2022-12-18T09:26:34;-2.70;99.90
35970;DHT22;22448;51.298;6.430;2022-12-18T09:29:02;-2.60;99.90
35970;DHT22;22448;51.298;6.430;2022-12-18T09:31:29;-2.50;99.90
35970;DHT22;22448;51.298;6.430;2022-12-18T09:33:56;-2.50;99.90
35970;DHT22;22448;51.298;6.430;2022-12-18T09:36:23;-2.40;99.90
35970;DHT22;22448;51.298;6.430;2022-12-18T09:38:50;-2.40;99.90
35970;DHT22;22448;51.298;6.430;2022-12-18T09:41:35;-2.30;99.90
35970;DHT22;22448;51.298;6.430;2022-12-18T09:49:30;-2.10;99.90
35970;DHT22;22448;51.298;6.430;2022-12-18T09:52:09;-2.10;99.90
35970;DHT22;22448;51.298;6.430;2022-12-18T09:54:42;-2.10;99.90
35970;DHT22;22448;51.298;6.430;2022-12-18T09:57:14;-2.10;99.90
35970;DHT22;22448;51.298;6.430;2022-12-18T09:59:42;-2.00;99.90
35970;DHT22;22448;51.298;6.430;2022-12-18T10:02:22;-2.00;99.90
35970;DHT22;22448;51.298;6.430;2022-12-18T10:07:40;-1.90;99.90
35970;DHT22;22448;51.298;6.430;2022-12-18T10:13:41;-1.80;99.90
35970;DHT22;22448;51.298;6.430;2022-12-18T10:16:27;-1.80;99.90
35970;DHT22;22448;51.298;6.430;2022-12-18T10:19:00;-1.70;99.90
35970;DHT22;22448;51.298;6.430;2022-12-18T10:21:41;-1.70;99.90
35970;DHT22;22448;51.298;6.430;2022-12-18T10:24:22;-1.70;99.90
35970;DHT22;22448;51.298;6.430;2022-12-18T10:26:53;-1.70;99.90
35970;DHT22;22448;51.298;6.430;2022-12-18T10:29:24;-1.60;99.90
35970;DHT22;22448;51.298;6.430;2022-12-18T10:31:51;-1.60;99.90
35970;DHT22;22448;51.298;6.430;2022-12-18T10:34:18;-1.50;99.90
35970;DHT22;22448;51.298;6.430;2022-12-18T10:36:47;-1.50;99.90
35970;DHT22;22448;51.298;6.430;2022-12-18T10:39:21;-1.40;99.90
35970;DHT22;22448;51.298;6.430;2022-12-18T10:41:49;-1.40;99.90
35970;DHT22;22448;51.298;6.430;2022-12-18T10:44:21;-1.40;99.90
35970;DHT22;22448;51.298;6.430;2022-12-18T10:47:03;-1.40;99.90
35970;DHT22;22448;51.298;6.430;2022-12-18T10:49:49;-1.40;99.90
35970;DHT22;22448;51.298;6.430;2022-12-18T10:52:22;-1.30;99.90
35970;DHT22;22448;51.298;6.430;2022-12-18T10:54:58;-1.30;99.90
35970;DHT22;22448;51.298;6.430;2022-12-18T10:57:36;-1.20;99.90
35970;DHT22;22448;51.298;6.430;2022-12-18T11:02:48;-1.20;99.90
35970;DHT22;22448;51.298;6.430;2022-12-18T11:05:32;-1.20;99.90
35970;DHT22;22448;51.298;6.430;2022-12-18T11:08:00;-1.20;99.90
35970;DHT22;22448;51.298;6.430;2022-12-18T11:10:33;-1.20;99.90
35970;DHT22;22448;51.298;6.430;2022-12-18T11:13:18;-1.10;99.90
35970;DHT22;22448;51.298;6.430;2022-12-18T11:15:46;-1.10;99.90
35970;DHT22;22448;51.298;6.430;2022-12-18T11:18:27;-1.00;99.90
35970;DHT22;22448;51.298;6.430;2022-12-18T11:21:14;-1.10;99.90
35970;DHT22;22448;51.298;6.430;2022-12-18T11:23:52;-1.00;99.90
35970;DHT22;22448;51.298;6.430;2022-12-18T11:26:20;-1.00;99.90
35970;DHT22;22448;51.298;6.430;2022-12-18T11:29:09;-1.00;99.90
35970;DHT22;22448;51.298;6.430;2022-12-18T11:31:36;-1.00;99.90
35970;DHT22;22448;51.298;6.430;2022-12-18T11:34:11;-1.10;99.90
35970;DHT22;22448;51.298;6.430;2022-12-18T11:36:58;-1.10;99.90
35970;DHT22;22448;51.298;6.430;2022-12-18T11:39:37;-1.10;99.90
35970;DHT22;22448;51.298;6.430;2022-12-18T11:44:50;-1.00;99.90
35970;DHT22;22448;51.298;6.430;2022-12-18T11:47:55;-1.00;99.90
35970;DHT22;22448;51.298;6.430;2022-12-18T11:50:37;-1.00;99.90
35970;DHT22;22448;51.298;6.430;2022-12-18T11:53:11;-1.00;99.90
35970;DHT22;22448;51.298;6.430;2022-12-18T12:01:22;-1.00;99.90
35970;DHT22;22448;51.298;6.430;2022-12-18T12:07:06;-0.90;99.90
35970;DHT22;22448;51.298;6.430;2022-12-18T12:10:07;-0.90;99.90
35970;DHT22;22448;51.298;6.430;2022-12-18T12:12:59;-0.90;99.90
35970;DHT22;22448;51.298;6.430;2022-12-18T12:15:34;-0.90;99.90
35970;DHT22;22448;51.298;6.430;2022-12-18T12:18:28;-0.90;99.90
35970;DHT22;22448;51.298;6.430;2022-12-18T12:23:46;-0.80;99.90
35970;DHT22;22448;51.298;6.430;2022-12-18T12:26:35;-0.80;99.90
35970;DHT22;22448;51.298;6.430;2022-12-18T12:40:51;-0.80;99.90
35970;DHT22;22448;51.298;6.430;2022-12-18T12:43:41;-0.80;99.90
35970;DHT22;22448;51.298;6.430;2022-12-18T12:46:19;-0.80;99.90
35970;DHT22;22448;51.298;6.430;2022-12-18T12:49:19;-0.80;99.90
35970;DHT22;22448;51.298;6.430;2022-12-18T12:52:03;-0.80;99.90
35970;DHT22;22448;51.298;6.430;2022-12-18T12:54:32;-0.80;99.90
35970;DHT22;22448;51.298;6.430;2022-12-18T13:00:11;-0.80;99.90
35970;DHT22;22448;51.298;6.430;2022-12-18T13:03:00;-0.80;99.90
35970;DHT22;22448;51.298;6.430;2022-12-18T13:05:57;-0.80;99.90
35970;DHT22;22448;51.298;6.430;2022-12-18T13:08:27;-0.80;99.90
35970;DHT22;22448;51.298;6.430;2022-12-18T13:10:59;-0.80;99.90
35970;DHT22;22448;51.298;6.430;2022-12-18T13:13:54;-0.80;99.90
35970;DHT22;22448;51.298;6.430;2022-12-18T13:16:23;-0.80;99.90
35970;DHT22;22448;51.298;6.430;2022-12-18T13:18:55;-0.80;99.90
35970;DHT22;22448;51.298;6.430;2022-12-18T13:21:31;-0.80;99.90
35970;DHT22;22448;51.298;6.430;2022-12-18T13:24:34;-0.80;99.90
35970;DHT22;22448;51.298;6.430;2022-12-18T13:35:52;-0.80;99.90
35970;DHT22;22448;51.298;6.430;2022-12-18T13:38:34;-0.80;99.90
35970;DHT22;22448;51.298;6.430;2022-12-18T13:48:57;-0.80;99.90
35970;DHT22;22448;51.298;6.430;2022-12-18T13:51:25;-0.90;99.90
35970;DHT22;22448;51.298;6.430;2022-12-18T13:54:13;-0.90;99.90
35970;DHT22;22448;51.298;6.430;2022-12-18T13:56:44;-0.90;99.90
35970;DHT22;22448;51.298;6.430;2022-12-18T13:59:21;-0.90;99.90
35970;DHT22;22448;51.298;6.430;2022-12-18T14:02:44;-0.90;99.90
35970;DHT22;22448;51.298;6.430;2022-12-18T14:04:47;-0.90;99.90
35970;DHT22;22448;51.298;6.430;2022-12-18T14:07:19;-0.90;99.90
35970;DHT22;22448;51.298;6.430;2022-12-18T14:09:49;-0.90;99.90
35970;DHT22;22448;51.298;6.430;2022-12-18T14:12:26;-0.90;99.90
35970;DHT22;22448;51.298;6.430;2022-12-18T14:17:42;-1.00;99.90
35970;DHT22;22448;51.298;6.430;2022-12-18T14:20:14;-0.90;99.90
35970;DHT22;22448;51.298;6.430;2022-12-18T14:22:48;-1.00;99.90
35970;DHT22;22448;51.298;6.430;2022-12-18T14:25:22;-1.00;99.90
35970;DHT22;22448;51.298;6.430;2022-12-18T14:28:12;-1.00;99.90
35970;DHT22;22448;51.298;6.430;2022-12-18T14:30:42;-1.10;99.90
35970;DHT22;22448;51.298;6.430;2022-12-18T14:33:12;-1.10;99.90
35970;DHT22;22448;51.298;6.430;2022-12-18T14:35:42;-1.10;99.90
35970;DHT22;22448;51.298;6.430;2022-12-18T14:41:10;-1.20;99.90
35970;DHT22;22448;51.298;6.430;2022-12-18T14:43:40;-1.10;99.90
35970;DHT22;22448;51.298;6.430;2022-12-18T14:46:28;-1.20;99.90
35970;DHT22;22448;51.298;6.430;2022-12-18T14:48:56;-1.20;99.90
35970;DHT22;22448;51.298;6.430;2022-12-18T14:51:28;-1.20;99.90
35970;DHT22;22448;51.298;6.430;2022-12-18T14:54:01;-1.20;99.90
35970;DHT22;22448;51.298;6.430;2022-12-18T14:56:32;-1.20;99.90
35970;DHT22;22448;51.298;6.430;2022-12-18T14:59:05;-1.20;99.90
35970;DHT22;22448;51.298;6.430;2022-12-18T15:01:49;-1.20;99.90
35970;DHT22;22448;51.298;6.430;2022-12-18T15:04:28;-1.20;99.90
35970;DHT22;22448;51.298;6.430;2022-12-18T15:07:09;-1.20;99.90
35970;DHT22;22448;51.298;6.430;2022-12-18T15:09:39;-1.20;99.90
35970;DHT22;22448;51.298;6.430;2022-12-18T15:12:25;-1.20;99.90
35970;DHT22;22448;51.298;6.430;2022-12-18T15:14:54;-1.20;99.90
35970;DHT22;22448;51.298;6.430;2022-12-18T15:17:23;-1.20;99.90
35970;DHT22;22448;51.298;6.430;2022-12-18T15:19:58;-1.20;99.90
35970;DHT22;22448;51.298;6.430;2022-12-18T15:22:33;-1.20;99.90
35970;DHT22;22448;51.298;6.430;2022-12-18T15:25:02;-1.30;99.90
35970;DHT22;22448;51.298;6.430;2022-12-18T15:27:35;-1.30;99.90
35970;DHT22;22448;51.298;6.430;2022-12-18T15:32:36;-1.30;99.90
35970;DHT22;22448;51.298;6.430;2022-12-18T15:35:14;-1.30;99.90
35970;DHT22;22448;51.298;6.430;2022-12-18T15:37:42;-1.40;99.90
35970;DHT22;22448;51.298;6.430;2022-12-18T15:40:17;-1.40;99.90
35970;DHT22;22448;51.298;6.430;2022-12-18T15:42:46;-1.40;99.90
35970;DHT22;22448;51.298;6.430;2022-12-18T15:45:32;-1.40;99.90
35970;DHT22;22448;51.298;6.430;2022-12-18T15:47:59;-1.40;99.90
35970;DHT22;22448;51.298;6.430;2022-12-18T15:50:26;-1.40;99.90
35970;DHT22;22448;51.298;6.430;2022-12-18T15:52:54;-1.40;99.90
35970;DHT22;22448;51.298;6.430;2022-12-18T15:55:23;-1.50;99.90
35970;DHT22;22448;51.298;6.430;2022-12-18T15:58:10;-1.50;99.90
35970;DHT22;22448;51.298;6.430;2022-12-18T16:00:39;-1.50;99.90
35970;DHT22;22448;51.298;6.430;2022-12-18T16:03:06;-1.50;99.90
35970;DHT22;22448;51.298;6.430;2022-12-18T16:05:33;-1.50;99.90
35970;DHT22;22448;51.298;6.430;2022-12-18T16:08:00;-1.50;99.90
35970;DHT22;22448;51.298;6.430;2022-12-18T16:10:26;-1.50;99.90
35970;DHT22;22448;51.298;6.430;2022-12-18T16:12:53;-1.50;99.90
35970;DHT22;22448;51.298;6.430;2022-12-18T16:15:20;-1.60;99.90
35970;DHT22;22448;51.298;6.430;2022-12-18T16:17:50;-1.60;99.90
35970;DHT22;22448;51.298;6.430;2022-12-18T16:20:20;-1.60;99.90
35970;DHT22;22448;51.298;6.430;2022-12-18T16:22:49;-1.60;99.90
35970;DHT22;22448;51.298;6.430;2022-12-18T16:25:24;-1.60;99.90
35970;DHT22;22448;51.298;6.430;2022-12-18T16:27:52;-1.60;99.90
35970;DHT22;22448;51.298;6.430;2022-12-18T16:30:23;-1.60;99.90
35970;DHT22;22448;51.298;6.430;2022-12-18T16:32:51;-1.60;99.90
35970;DHT22;22448;51.298;6.430;2022-12-18T16:35:18;-1.60;99.90
35970;DHT22;22448;51.298;6.430;2022-12-18T16:37:44;-1.60;99.90
35970;DHT22;22448;51.298;6.430;2022-12-18T16:40:14;-1.60;99.90
35970;DHT22;22448;51.298;6.430;2022-12-18T16:42:42;-1.60;99.90
35970;DHT22;22448;51.298;6.430;2022-12-18T16:45:11;-1.60;99.90
35970;DHT22;22448;51.298;6.430;2022-12-18T16:47:38;-1.60;99.90
35970;DHT22;22448;51.298;6.430;2022-12-18T16:50:06;-1.60;99.90
35970;DHT22;22448;51.298;6.430;2022-12-18T16:52:33;-1.60;99.90
35970;DHT22;22448;51.298;6.430;2022-12-18T16:55:00;-1.60;99.90
35970;DHT22;22448;51.298;6.430;2022-12-18T16:57:27;-1.60;99.90
35970;DHT22;22448;51.298;6.430;2022-12-18T16:59:54;-1.60;99.90
35970;DHT22;22448;51.298;6.430;2022-12-18T17:02:26;-1.60;99.90
35970;DHT22;22448;51.298;6.430;2022-12-18T17:04:55;-1.60;99.90
35970;DHT22;22448;51.298;6.430;2022-12-18T17:07:23;-1.60;99.90
35970;DHT22;22448;51.298;6.430;2022-12-18T17:09:51;-1.60;99.90
35970;DHT22;22448;51.298;6.430;2022-12-18T17:12:19;-1.60;99.90
35970;DHT22;22448;51.298;6.430;2022-12-18T17:14:46;-1.60;99.90
35970;DHT22;22448;51.298;6.430;2022-12-18T17:17:14;-1.60;99.90
35970;DHT22;22448;51.298;6.430;2022-12-18T17:19:50;-1.60;99.90
35970;DHT22;22448;51.298;6.430;2022-12-18T17:22:18;-1.60;99.90
35970;DHT22;22448;51.298;6.430;2022-12-18T17:24:46;-1.60;99.90
35970;DHT22;22448;51.298;6.430;2022-12-18T17:27:14;-1.50;99.90
35970;DHT22;22448;51.298;6.430;2022-12-18T17:29:40;-1.60;99.90
35970;DHT22;22448;51.298;6.430;2022-12-18T17:32:14;-1.60;99.90
35970;DHT22;22448;51.298;6.430;2022-12-18T17:34:41;-1.60;99.90
35970;DHT22;22448;51.298;6.430;2022-12-18T17:37:08;-1.60;99.90
35970;DHT22;22448;51.298;6.430;2022-12-18T17:39:35;-1.50;99.90
35970;DHT22;22448;51.298;6.430;2022-12-18T17:42:01;-1.50;99.90
35970;DHT22;22448;51.298;6.430;2022-12-18T17:44:28;-1.60;99.90
35970;DHT22;22448;51.298;6.430;2022-12-18T17:46:55;-1.60;99.90
35970;DHT22;22448;51.298;6.430;2022-12-18T17:49:21;-1.60;99.90
35970;DHT22;22448;51.298;6.430;2022-12-18T17:51:48;-1.60;99.90
35970;DHT22;22448;51.298;6.430;2022-12-18T17:54:15;-1.50;99.90
35970;DHT22;22448;51.298;6.430;2022-12-18T17:56:42;-1.60;99.90
35970;DHT22;22448;51.298;6.430;2022-12-18T17:59:09;-1.60;99.90
35970;DHT22;22448;51.298;6.430;2022-12-18T18:01:36;-1.50;99.90
35970;DHT22;22448;51.298;6.430;2022-12-18T18:04:10;-1.60;99.90
35970;DHT22;22448;51.298;6.430;2022-12-18T18:06:37;-1.60;99.90
35970;DHT22;22448;51.298;6.430;2022-12-18T18:09:08;-1.60;99.90
35970;DHT22;22448;51.298;6.430;2022-12-18T18:11:41;-1.60;99.90
35970;DHT22;22448;51.298;6.430;2022-12-18T18:14:27;-1.60;99.90
35970;DHT22;22448;51.298;6.430;2022-12-18T18:16:54;-1.60;99.90
35970;DHT22;22448;51.298;6.430;2022-12-18T18:19:23;-1.60;99.90
35970;DHT22;22448;51.298;6.430;2022-12-18T18:21:51;-1.60;99.90
35970;DHT22;22448;51.298;6.430;2022-12-18T18:24:21;-1.60;99.90
35970;DHT22;22448;51.298;6.430;2022-12-18T18:26:48;-1.60;99.90
35970;DHT22;22448;51.298;6.430;2022-12-18T18:29:21;-1.60;99.90
35970;DHT22;22448;51.298;6.430;2022-12-18T18:31:48;-1.60;99.90
35970;DHT22;22448;51.298;6.430;2022-12-18T18:34:18;-1.60;99.90
35970;DHT22;22448;51.298;6.430;2022-12-18T18:36:45;-1.60;99.90
35970;DHT22;22448;51.298;6.430;2022-12-18T18:39:13;-1.60;99.90
35970;DHT22;22448;51.298;6.430;2022-12-18T18:41:40;-1.60;99.90
35970;DHT22;22448;51.298;6.430;2022-12-18T18:44:12;-1.60;99.90
35970;DHT22;22448;51.298;6.430;2022-12-18T18:46:39;-1.60;99.90
35970;DHT22;22448;51.298;6.430;2022-12-18T18:49:05;-1.60;99.90
35970;DHT22;22448;51.298;6.430;2022-12-18T18:51:32;-1.60;99.90
35970;DHT22;22448;51.298;6.430;2022-12-18T18:54:01;-1.60;99.90
35970;DHT22;22448;51.298;6.430;2022-12-18T18:56:28;-1.60;99.90
35970;DHT22;22448;51.298;6.430;2022-12-18T18:59:15;-1.60;99.90
35970;DHT22;22448;51.298;6.430;2022-12-18T19:01:42;-1.50;99.90
35970;DHT22;22448;51.298;6.430;2022-12-18T19:04:09;-1.50;99.90
35970;DHT22;22448;51.298;6.430;2022-12-18T19:06:36;-1.50;99.90
35970;DHT22;22448;51.298;6.430;2022-12-18T19:09:04;-1.50;99.90
35970;DHT22;22448;51.298;6.430;2022-12-18T19:11:32;-1.50;99.90
35970;DHT22;22448;51.298;6.430;2022-12-18T19:14:17;-1.50;99.90
35970;DHT22;22448;51.298;6.430;2022-12-18T19:16:44;-1.50;99.90
35970;DHT22;22448;51.298;6.430;2022-12-18T19:19:12;-1.50;99.90
35970;DHT22;22448;51.298;6.430;2022-12-18T19:21:39;-1.50;99.90
35970;DHT22;22448;51.298;6.430;2022-12-18T19:24:06;-1.50;99.90
35970;DHT22;22448;51.298;6.430;2022-12-18T19:26:35;-1.50;99.90
35970;DHT22;22448;51.298;6.430;2022-12-18T19:29:04;-1.50;99.90
35970;DHT22;22448;51.298;6.430;2022-12-18T19:31:32;-1.50;99.90
35970;DHT22;22448;51.298;6.430;2022-12-18T19:34:03;-1.50;99.90
35970;DHT22;22448;51.298;6.430;2022-12-18T19:36:31;-1.50;99.90
35970;DHT22;22448;51.298;6.430;2022-12-18T19:39:00;-1.50;99.90
35970;DHT22;22448;51.298;6.430;2022-12-18T19:41:28;-1.50;99.90
35970;DHT22;22448;51.298;6.430;2022-12-18T19:43:59;-1.50;99.90
35970;DHT22;22448;51.298;6.430;2022-12-18T19:46:34;-1.40;99.90
35970;DHT22;22448;51.298;6.430;2022-12-18T19:49:01;-1.40;99.90
35970;DHT22;22448;51.298;6.430;2022-12-18T19:51:30;-1.40;99.90
35970;DHT22;22448;51.298;6.430;2022-12-18T19:53:59;-1.40;99.90
35970;DHT22;22448;51.298;6.430;2022-12-18T19:56:30;-1.40;99.90
35970;DHT22;22448;51.298;6.430;2022-12-18T19:58:57;-1.40;99.90
35970;DHT22;22448;51.298;6.430;2022-12-18T20:01:26;-1.40;99.90
35970;DHT22;22448;51.298;6.430;2022-12-18T20:03:53;-1.40;99.90
35970;DHT22;22448;51.298;6.430;2022-12-18T20:08:54;-1.40;99.90
35970;DHT22;22448;51.298;6.430;2022-12-18T20:11:27;-1.40;99.90
35970;DHT22;22448;51.298;6.430;2022-12-18T20:13:54;-1.40;99.90
35970;DHT22;22448;51.298;6.430;2022-12-18T20:16:21;-1.40;99.90
35970;DHT22;22448;51.298;6.430;2022-12-18T20:18:48;-1.40;99.90
35970;DHT22;22448;51.298;6.430;2022-12-18T20:21:15;-1.40;99.90
35970;DHT22;22448;51.298;6.430;2022-12-18T20:23:41;-1.40;99.90
35970;DHT22;22448;51.298;6.430;2022-12-18T20:26:09;-1.30;99.90
35970;DHT22;22448;51.298;6.430;2022-12-18T20:28:36;-1.40;99.90
35970;DHT22;22448;51.298;6.430;2022-12-18T20:31:06;-1.40;99.90
35970;DHT22;22448;51.298;6.430;2022-12-18T20:33:44;-1.40;99.90
35970;DHT22;22448;51.298;6.430;2022-12-18T20:36:17;-1.40;99.90
35970;DHT22;22448;51.298;6.430;2022-12-18T20:38:49;-1.30;99.90
35970;DHT22;22448;51.298;6.430;2022-12-18T20:41:21;-1.40;99.90
35970;DHT22;22448;51.298;6.430;2022-12-18T20:43:48;-1.40;99.90
35970;DHT22;22448;51.298;6.430;2022-12-18T20:46:16;-1.40;99.90
35970;DHT22;22448;51.298;6.430;2022-12-18T20:48:44;-1.30;99.90
35970;DHT22;22448;51.298;6.430;2022-12-18T20:51:16;-1.30;99.90
35970;DHT22;22448;51.298;6.430;2022-12-18T20:53:43;-1.30;99.90
35970;DHT22;22448;51.298;6.430;2022-12-18T20:56:20;-1.30;99.90
35970;DHT22;22448;51.298;6.430;2022-12-18T20:58:50;-1.30;99.90
35970;DHT22;22448;51.298;6.430;2022-12-18T21:01:22;-1.30;99.90
35970;DHT22;22448;51.298;6.430;2022-12-18T21:03:50;-1.30;99.90
35970;DHT22;22448;51.298;6.430;2022-12-18T21:06:19;-1.30;99.90
35970;DHT22;22448;51.298;6.430;2022-12-18T21:08:47;-1.30;99.90
35970;DHT22;22448;51.298;6.430;2022-12-18T21:14:09;-1.30;99.90
35970;DHT22;22448;51.298;6.430;2022-12-18T21:16:36;-1.30;99.90
35970;DHT22;22448;51.298;6.430;2022-12-18T21:19:03;-1.30;99.90
35970;DHT22;22448;51.298;6.430;2022-12-18T21:21:30;-1.30;99.90
35970;DHT22;22448;51.298;6.430;2022-12-18T21:24:04;-1.30;99.90
35970;DHT22;22448;51.298;6.430;2022-12-18T21:26:32;-1.30;99.90
35970;DHT22;22448;51.298;6.430;2022-12-18T21:29:02;-1.30;99.90
35970;DHT22;22448;51.298;6.430;2022-12-18T21:31:32;-1.30;99.90
35970;DHT22;22448;51.298;6.430;2022-12-18T21:33:59;-1.30;99.90
35970;DHT22;22448;51.298;6.430;2022-12-18T21:36:28;-1.30;99.90
35970;DHT22;22448;51.298;6.430;2022-12-18T21:38:56;-1.30;99.90
35970;DHT22;22448;51.298;6.430;2022-12-18T21:41:25;-1.30;99.90
35970;DHT22;22448;51.298;6.430;2022-12-18T21:44:14;-1.30;99.90
35970;DHT22;22448;51.298;6.430;2022-12-18T21:46:43;-1.30;99.90
35970;DHT22;22448;51.298;6.430;2022-12-18T21:49:13;-1.30;99.90
35970;DHT22;22448;51.298;6.430;2022-12-18T21:51:40;-1.30;99.90
35970;DHT22;22448;51.298;6.430;2022-12-18T21:54:07;-1.30;99.90
35970;DHT22;22448;51.298;6.430;2022-12-18T21:57:13;-1.30;99.90
35970;DHT22;22448;51.298;6.430;2022-12-18T21:59:41;-1.30;99.90
35970;DHT22;22448;51.298;6.430;2022-12-18T22:02:12;-1.40;99.90
35970;DHT22;22448;51.298;6.430;2022-12-18T22:04:40;-1.40;99.90
35970;DHT22;22448;51.298;6.430;2022-12-18T22:07:08;-1.40;99.90
35970;DHT22;22448;51.298;6.430;2022-12-18T22:09:36;-1.40;99.90
35970;DHT22;22448;51.298;6.430;2022-12-18T22:12:04;-1.40;99.90
35970;DHT22;22448;51.298;6.430;2022-12-18T22:14:31;-1.40;99.90
35970;DHT22;22448;51.298;6.430;2022-12-18T22:16:58;-1.40;99.90
35970;DHT22;22448;51.298;6.430;2022-12-18T22:19:26;-1.40;99.90
35970;DHT22;22448;51.298;6.430;2022-12-18T22:21:53;-1.30;99.90
35970;DHT22;22448;51.298;6.430;2022-12-18T22:24:24;-1.40;99.90
35970;DHT22;22448;51.298;6.430;2022-12-18T22:26:52;-1.30;99.90
35970;DHT22;22448;51.298;6.430;2022-12-18T22:29:27;-1.30;99.90
35970;DHT22;22448;51.298;6.430;2022-12-18T22:32:14;-1.30;99.90
35970;DHT22;22448;51.298;6.430;2022-12-18T22:35:06;-1.30;99.90
35970;DHT22;22448;51.298;6.430;2022-12-18T22:37:41;-1.30;99.90
35970;DHT22;22448;51.298;6.430;2022-12-18T22:40:16;-1.30;99.90
35970;DHT22;22448;51.298;6.430;2022-12-18T22:42:50;-1.30;99.90
35970;DHT22;22448;51.298;6.430;2022-12-18T22:45:19;-1.30;99.90
35970;DHT22;22448;51.298;6.430;2022-12-18T22:47:45;-1.20;99.90
35970;DHT22;22448;51.298;6.430;2022-12-18T22:50:12;-1.30;99.90
35970;DHT22;22448;51.298;6.430;2022-12-18T22:52:40;-1.20;99.90
35970;DHT22;22448;51.298;6.430;2022-12-18T22:55:07;-1.20;99.90
35970;DHT22;22448;51.298;6.430;2022-12-18T22:57:34;-1.20;99.90
35970;DHT22;22448;51.298;6.430;2022-12-18T23:00:04;-1.20;99.90
35970;DHT22;22448;51.298;6.430;2022-12-18T23:02:31;-1.10;99.90
35970;DHT22;22448;51.298;6.430;2022-12-18T23:04:58;-1.10;99.90
35970;DHT22;22448;51.298;6.430;2022-12-18T23:07:25;-1.10;99.90
35970;DHT22;22448;51.298;6.430;2022-12-18T23:09:52;-1.10;99.90
35970;DHT22;22448;51.298;6.430;2022-12-18T23:12:26;-1.10;99.90
35970;DHT22;22448;51.298;6.430;2022-12-18T23:14:53;-1.10;99.90
35970;DHT22;22448;51.298;6.430;2022-12-18T23:17:20;-1.00;99.90
35970;DHT22;22448;51.298;6.430;2022-12-18T23:19:47;-1.00;99.90
35970;DHT22;22448;51.298;6.430;2022-12-18T23:22:16;-1.00;99.90
35970;DHT22;22448;51.298;6.430;2022-12-18T23:24:43;-0.90;99.90
35970;DHT22;22448;51.298;6.430;2022-12-18T23:27:10;-0.90;99.90
35970;DHT22;22448;51.298;6.430;2022-12-18T23:29:38;-0.90;99.90
35970;DHT22;22448;51.298;6.430;2022-12-18T23:32:06;-0.90;99.90
35970;DHT22;22448;51.298;6.430;2022-12-18T23:34:33;-0.80;99.90
35970;DHT22;22448;51.298;6.430;2022-12-18T23:37:00;-0.90;99.90
35970;DHT22;22448;51.298;6.430;2022-12-18T23:39:29;-0.80;99.90
35970;DHT22;22448;51.298;6.430;2022-12-18T23:41:57;-0.80;99.90
35970;DHT22;22448;51.298;6.430;2022-12-18T23:44:24;-0.80;99.90
35970;DHT22;22448;51.298;6.430;2022-12-18T23:46:51;-0.80;99.90
35970;DHT22;22448;51.298;6.430;2022-12-18T23:49:18;-0.80;99.90
35970;DHT22;22448;51.298;6.430;2022-12-18T23:51:45;-0.70;99.90
35970;DHT22;22448;51.298;6.430;2022-12-18T23:54:12;-0.70;99.90
35970;DHT22;22448;51.298;6.430;2022-12-18T23:56:39;-0.70;99.90
35970;DHT22;22448;51.298;6.430;2022-12-18T23:59:05;-0.70;99.90
